createdAt,value
2023-02-20T00:00:16.609Z,1.13
2023-02-20T00:02:43.184Z,1.12
2023-02-20T00:05:09.879Z,1.09
2023-02-20T00:07:38.593Z,1.03
2023-02-20T00:10:05.249Z,1.00
2023-02-20T00:12:33.028Z,0.92
2023-02-20T00:14:59.470Z,0.87
2023-02-20T00:17:25.969Z,0.85
2023-02-20T00:19:52.487Z,0.79
2023-02-20T00:22:18.914Z,0.74
2023-02-20T00:24:45.462Z,0.72
2023-02-20T00:27:12.131Z,0.71
2023-02-20T00:29:38.658Z,0.72
2023-02-20T00:32:05.156Z,0.74
2023-02-20T00:34:31.684Z,0.74
2023-02-20T00:36:58.306Z,0.71
2023-02-20T00:39:24.724Z,0.63
2023-02-20T00:41:51.444Z,0.54
2023-02-20T00:44:17.912Z,0.46
2023-02-20T00:46:44.409Z,0.37
2023-02-20T00:49:11.038Z,0.32
2023-02-20T00:51:37.586Z,0.33
2023-02-20T00:54:04.215Z,0.31
2023-02-20T00:56:30.714Z,0.31
2023-02-20T00:58:57.193Z,0.33
2023-02-20T01:01:24.786Z,0.33
2023-02-20T01:03:51.309Z,0.34
2023-02-20T01:06:17.747Z,0.36
2023-02-20T01:08:44.373Z,0.38
2023-02-20T01:11:10.854Z,0.42
2023-02-20T01:13:37.297Z,0.45
2023-02-20T01:16:04.664Z,0.48
2023-02-20T01:18:31.133Z,0.51
2023-02-20T01:20:57.652Z,0.53
2023-02-20T01:23:24.155Z,0.55
2023-02-20T01:25:50.647Z,0.57
2023-02-20T01:28:17.178Z,0.55
2023-02-20T01:30:43.598Z,0.55
2023-02-20T01:33:10.132Z,0.53
2023-02-20T01:35:36.619Z,0.50
2023-02-20T01:38:06.556Z,0.48
2023-02-20T01:40:33.648Z,0.44
2023-02-20T01:43:00.115Z,0.42
2023-02-20T01:45:26.496Z,0.43
2023-02-20T01:47:53.553Z,0.45
2023-02-20T01:50:20.542Z,0.43
2023-02-20T01:52:48.503Z,0.47
2023-02-20T01:55:19.582Z,0.51
2023-02-20T01:57:50.775Z,0.56
2023-02-20T02:00:19.660Z,0.53
2023-02-20T02:02:47.588Z,0.50
2023-02-20T02:05:14.023Z,0.47
2023-02-20T02:07:40.749Z,0.46
2023-02-20T02:10:07.737Z,0.45
2023-02-20T02:12:34.174Z,0.45
2023-02-20T02:15:00.892Z,0.48
2023-02-20T02:17:53.771Z,0.50
2023-02-20T02:20:38.872Z,0.52
2023-02-20T02:23:20.628Z,0.55
2023-02-20T02:25:50.145Z,0.57
2023-02-20T02:28:30.940Z,0.60
2023-02-20T02:31:00.592Z,0.62
2023-02-20T02:33:27.035Z,0.65
2023-02-20T02:35:53.614Z,0.67
2023-02-20T02:38:26.734Z,0.70
2023-02-20T02:40:55.733Z,0.72
2023-02-20T02:43:31.468Z,0.71
2023-02-20T02:46:03.111Z,0.68
2023-02-20T02:48:36.362Z,0.67
2023-02-20T02:51:05.342Z,0.67
2023-02-20T02:53:31.946Z,0.68
2023-02-20T02:56:18.346Z,0.66
2023-02-20T02:58:44.780Z,0.63
2023-02-20T03:01:11.333Z,0.66
2023-02-20T03:03:38.274Z,0.66
2023-02-20T03:06:25.662Z,0.67
2023-02-20T03:08:57.827Z,0.66
2023-02-20T03:11:25.383Z,0.68
2023-02-20T03:14:11.526Z,0.67
2023-02-20T03:16:41.487Z,0.68
2023-02-20T03:19:09.674Z,0.69
2023-02-20T03:21:36.237Z,0.68
2023-02-20T03:24:02.644Z,0.66
2023-02-20T03:26:30.710Z,0.67
2023-02-20T03:29:10.404Z,0.67
2023-02-20T03:31:40.136Z,0.69
2023-02-20T03:34:27.260Z,0.71
2023-02-20T03:37:21.984Z,0.65
2023-02-20T03:40:09.406Z,0.59
2023-02-20T03:42:55.556Z,0.55
2023-02-20T03:45:23.338Z,0.51
2023-02-20T03:47:50.735Z,0.51
2023-02-20T03:50:17.165Z,0.50
2023-02-20T03:52:43.646Z,0.51
2023-02-20T03:55:10.129Z,0.50
2023-02-20T03:57:38.327Z,0.49
2023-02-20T04:00:15.520Z,0.47
2023-02-20T04:02:45.531Z,0.48
2023-02-20T04:05:19.281Z,0.48
2023-02-20T04:07:50.476Z,0.49
2023-02-20T04:10:18.419Z,0.50
2023-02-20T04:12:45.036Z,0.48
2023-02-20T04:15:11.659Z,0.43
2023-02-20T04:17:47.329Z,0.43
2023-02-20T04:20:13.791Z,0.44
2023-02-20T04:22:41.041Z,0.48
2023-02-20T04:25:27.768Z,0.55
2023-02-20T04:27:54.182Z,0.55
2023-02-20T04:30:20.828Z,0.55
2023-02-20T04:32:47.342Z,0.55
2023-02-20T04:35:17.837Z,0.54
2023-02-20T04:37:44.253Z,0.57
2023-02-20T04:40:11.534Z,0.61
2023-02-20T04:42:38.044Z,0.63
2023-02-20T04:45:04.942Z,0.63
2023-02-20T04:47:31.366Z,0.65
2023-02-20T04:49:58.167Z,0.67
2023-02-20T04:52:24.764Z,0.70
2023-02-20T04:54:51.363Z,0.74
2023-02-20T04:57:18.331Z,0.75
2023-02-20T04:59:44.758Z,0.74
2023-02-20T05:02:11.360Z,0.74
2023-02-20T05:04:37.920Z,0.74
2023-02-20T05:07:04.443Z,0.75
2023-02-20T05:09:31.964Z,0.78
2023-02-20T05:11:58.567Z,0.83
2023-02-20T05:14:24.987Z,0.79
2023-02-20T05:16:51.439Z,0.81
2023-02-20T05:19:18.011Z,0.85
2023-02-20T05:22:03.171Z,0.85
2023-02-20T05:24:29.889Z,0.85
2023-02-20T05:26:56.415Z,0.86
2023-02-20T05:29:22.978Z,0.88
2023-02-20T05:31:49.590Z,0.88
2023-02-20T05:34:16.062Z,0.92
2023-02-20T05:36:42.492Z,0.93
2023-02-20T05:39:08.995Z,0.97
2023-02-20T05:41:35.639Z,1.02
2023-02-20T05:44:02.109Z,1.06
2023-02-20T05:46:28.737Z,1.10
2023-02-20T05:48:55.481Z,1.11
2023-02-20T05:51:21.957Z,1.13
2023-02-20T05:53:48.555Z,1.14
2023-02-20T05:56:15.049Z,1.15
2023-02-20T05:58:44.851Z,1.18
2023-02-20T06:01:23.618Z,1.25
2023-02-20T06:03:50.170Z,1.30
2023-02-20T06:06:16.784Z,1.28
2023-02-20T06:08:43.237Z,1.22
2023-02-20T06:11:10.082Z,1.18
2023-02-20T06:13:36.659Z,1.18
2023-02-20T06:16:03.166Z,1.17
2023-02-20T06:18:29.601Z,1.20
2023-02-20T06:20:56.932Z,1.19
2023-02-20T06:23:23.564Z,1.19
2023-02-20T06:25:50.014Z,1.19
2023-02-20T06:28:16.685Z,1.21
2023-02-20T06:30:43.172Z,1.25
2023-02-20T06:33:13.250Z,1.24
2023-02-20T06:35:39.667Z,1.26
2023-02-20T06:38:06.162Z,1.26
2023-02-20T06:40:32.602Z,1.26
2023-02-20T06:42:59.099Z,1.28
2023-02-20T06:45:25.593Z,1.31
2023-02-20T06:47:52.010Z,1.34
2023-02-20T06:50:18.708Z,1.42
2023-02-20T06:52:45.153Z,1.45
2023-02-20T06:55:11.592Z,1.50
2023-02-20T06:57:38.080Z,1.57
2023-02-20T07:00:04.874Z,1.62
2023-02-20T07:02:31.357Z,1.67
2023-02-20T07:04:58.189Z,1.69
2023-02-20T07:07:24.606Z,1.75
2023-02-20T07:09:51.347Z,1.80
2023-02-20T07:12:17.837Z,1.84
2023-02-20T07:14:44.277Z,1.89
2023-02-20T07:17:10.739Z,1.97
2023-02-20T07:19:37.188Z,2.03
2023-02-20T07:22:03.694Z,2.09
2023-02-20T07:24:30.191Z,2.16
2023-02-20T07:29:22.077Z,2.32
2023-02-20T07:31:48.666Z,2.40
2023-02-20T07:34:16.347Z,2.49
2023-02-20T07:36:42.804Z,2.55
2023-02-20T07:39:10.425Z,2.55
2023-02-20T07:41:36.975Z,2.55
2023-02-20T07:44:03.518Z,2.58
2023-02-20T07:46:33.809Z,2.58
2023-02-20T07:49:01.225Z,2.58
2023-02-20T07:51:27.710Z,2.60
2023-02-20T07:53:54.977Z,2.59
2023-02-20T07:56:21.710Z,2.60
2023-02-20T07:58:48.229Z,2.60
2023-02-20T08:01:14.970Z,2.56
2023-02-20T08:03:41.556Z,2.49
2023-02-20T08:06:08.004Z,2.48
2023-02-20T08:08:34.490Z,2.44
2023-02-20T08:11:08.839Z,2.42
2023-02-20T08:13:36.754Z,2.38
2023-02-20T08:16:03.243Z,2.37
2023-02-20T08:18:29.870Z,2.36
2023-02-20T08:20:56.317Z,2.37
2023-02-20T08:23:23.154Z,2.36
2023-02-20T08:25:49.660Z,2.37
2023-02-20T08:28:16.159Z,2.35
2023-02-20T08:30:42.626Z,2.31
2023-02-20T08:33:09.159Z,2.27
2023-02-20T08:35:35.997Z,2.26
2023-02-20T08:38:03.700Z,2.26
2023-02-20T08:40:30.302Z,2.30
2023-02-20T08:42:57.037Z,2.32
2023-02-20T08:45:23.797Z,2.39
2023-02-20T08:47:50.424Z,2.45
2023-02-20T08:50:19.984Z,2.44
2023-02-20T08:52:46.560Z,2.45
2023-02-20T08:55:13.230Z,2.39
2023-02-20T08:57:42.471Z,2.36
2023-02-20T09:00:09.435Z,2.38
2023-02-20T09:02:35.981Z,2.39
2023-02-20T09:05:02.435Z,2.37
2023-02-20T09:07:28.897Z,2.35
2023-02-20T09:09:55.666Z,2.34
2023-02-20T09:12:22.256Z,2.33
2023-02-20T09:14:48.843Z,2.32
2023-02-20T09:17:15.389Z,2.30
2023-02-20T09:19:41.848Z,2.34
2023-02-20T09:22:08.281Z,2.33
2023-02-20T09:24:35.635Z,2.36
2023-02-20T09:27:02.396Z,2.44
2023-02-20T09:29:28.874Z,2.39
2023-02-20T09:31:55.568Z,2.38
2023-02-20T09:34:22.126Z,2.33
2023-02-20T09:36:48.569Z,2.29
2023-02-20T09:39:18.138Z,2.31
2023-02-20T09:41:53.677Z,2.32
2023-02-20T09:44:25.799Z,2.32
2023-02-20T09:46:52.270Z,2.36
2023-02-20T09:49:18.764Z,2.38
2023-02-20T09:51:45.926Z,2.40
2023-02-20T09:54:23.167Z,2.40
2023-02-20T09:56:50.201Z,2.48
2023-02-20T09:59:17.803Z,2.51
2023-02-20T10:02:01.613Z,2.54
2023-02-20T10:04:36.233Z,2.57
2023-02-20T10:07:20.984Z,2.62
2023-02-20T10:09:47.613Z,2.64
2023-02-20T10:12:20.060Z,2.76
2023-02-20T10:14:46.542Z,2.84
2023-02-20T10:17:25.320Z,2.93
2023-02-20T10:19:53.722Z,3.08
2023-02-20T10:22:22.057Z,3.18
2023-02-20T10:24:57.782Z,3.32
2023-02-20T10:27:24.210Z,3.42
2023-02-20T10:29:50.962Z,3.48
2023-02-20T10:32:22.054Z,3.59
2023-02-20T10:34:51.863Z,3.67
2023-02-20T10:37:21.788Z,3.72
2023-02-20T10:40:02.534Z,3.85
2023-02-20T10:42:30.932Z,3.91
2023-02-20T10:45:06.624Z,4.02
2023-02-20T10:48:08.765Z,4.13
2023-02-20T10:51:00.918Z,4.25
2023-02-20T10:53:33.435Z,4.37
2023-02-20T10:56:18.721Z,4.45
2023-02-20T10:59:06.556Z,4.49
2023-02-20T11:01:33.077Z,4.45
2023-02-20T11:04:04.103Z,4.49
2023-02-20T11:06:31.722Z,4.48
2023-02-20T11:08:58.149Z,4.55
2023-02-20T11:11:26.440Z,4.59
2023-02-20T11:13:53.065Z,4.68
2023-02-20T11:16:58.168Z,4.72
2023-02-20T11:19:39.571Z,4.68
2023-02-20T11:22:06.072Z,3.12
2023-02-20T11:24:33.514Z,4.67
2023-02-20T11:27:01.072Z,4.68
2023-02-20T11:29:28.814Z,4.68
2023-02-20T11:31:55.381Z,4.61
2023-02-20T11:34:22.656Z,4.63
2023-02-20T11:36:50.004Z,4.61
2023-02-20T11:39:21.201Z,4.68
2023-02-20T11:41:48.417Z,4.75
2023-02-20T11:44:22.168Z,4.88
2023-02-20T11:46:48.852Z,5.01
2023-02-20T11:49:25.439Z,5.05
2023-02-20T11:51:52.127Z,5.08
2023-02-20T11:54:26.009Z,5.15
2023-02-20T11:56:55.647Z,5.17
2023-02-20T11:59:25.222Z,5.23
2023-02-20T12:02:00.605Z,5.29
2023-02-20T12:04:27.676Z,5.36
2023-02-20T12:06:54.520Z,5.46
2023-02-20T12:09:22.511Z,5.57
2023-02-20T12:11:50.548Z,5.67
2023-02-20T12:14:17.121Z,5.64
2023-02-20T12:16:49.659Z,5.58
2023-02-20T12:19:42.443Z,5.57
2023-02-20T12:22:27.175Z,5.57
2023-02-20T12:25:06.439Z,5.58
2023-02-20T12:27:51.745Z,5.62
2023-02-20T12:30:33.706Z,5.67
2023-02-20T12:33:00.192Z,5.75
2023-02-20T12:35:31.390Z,5.82
2023-02-20T12:38:15.153Z,-144.82
2023-02-20T12:40:44.624Z,-144.82
2023-02-20T12:43:26.029Z,-144.82
2023-02-20T12:45:58.507Z,-144.82
2023-02-20T12:48:39.156Z,-144.82
2023-02-20T12:51:23.870Z,-144.82
2023-02-20T12:54:05.403Z,-144.82
2023-02-20T12:56:57.313Z,-144.82
2023-02-20T12:59:29.522Z,-144.82
2023-02-20T13:01:55.982Z,-144.82
2023-02-20T13:04:30.744Z,-144.82
2023-02-20T13:07:03.084Z,-144.82
2023-02-20T13:09:32.460Z,-144.82
2023-02-20T13:12:01.616Z,-144.82
2023-02-20T13:14:40.499Z,-144.82
2023-02-20T13:17:10.187Z,-144.82
2023-02-20T13:19:36.729Z,-144.82
2023-02-20T13:22:04.311Z,-144.82
2023-02-20T13:24:31.522Z,-144.82
2023-02-20T13:26:59.177Z,-144.82
2023-02-20T13:29:27.573Z,-144.82
2023-02-20T13:31:55.123Z,-144.82
2023-02-20T13:34:29.203Z,-144.82
2023-02-20T13:36:55.651Z,-144.82
2023-02-20T13:39:34.179Z,-144.82
2023-02-20T13:42:04.444Z,-144.82
2023-02-20T13:44:34.591Z,-144.82
2023-02-20T13:47:02.799Z,-144.82
2023-02-20T13:49:59.899Z,-144.82
2023-02-20T13:52:29.513Z,-144.82
2023-02-20T13:55:22.375Z,-144.82
2023-02-20T13:58:08.375Z,-144.82
2023-02-20T14:00:38.638Z,-144.82
2023-02-20T14:03:12.509Z,-144.82
2023-02-20T14:05:39.066Z,-144.82
2023-02-20T14:08:05.696Z,-144.82
2023-02-20T14:10:33.164Z,-144.82
2023-02-20T14:12:59.673Z,-144.82
2023-02-20T14:15:26.564Z,-144.82
2023-02-20T14:17:53.082Z,-144.82
2023-02-20T14:20:22.857Z,-144.82
2023-02-20T14:22:50.596Z,-144.82
2023-02-20T14:25:21.754Z,-144.82
2023-02-20T14:27:50.217Z,-144.82
2023-02-20T14:30:21.221Z,-144.82
2023-02-20T14:32:48.956Z,-144.82
2023-02-20T14:35:24.510Z,-144.82
2023-02-20T14:38:03.190Z,-144.82
2023-02-20T14:40:42.049Z,-144.82
2023-02-20T14:43:16.520Z,-144.82
2023-02-20T14:45:44.211Z,-144.82
2023-02-20T14:48:21.425Z,-144.82
2023-02-20T14:50:47.855Z,-144.82
2023-02-20T14:53:17.706Z,-144.82
2023-02-20T14:55:44.367Z,-144.82
2023-02-20T14:58:11.578Z,-144.82
2023-02-20T15:00:38.218Z,-144.82
2023-02-20T15:03:27.909Z,-144.82
2023-02-20T15:05:55.761Z,-144.82
2023-02-20T15:08:23.849Z,-144.82
2023-02-20T15:10:53.979Z,-144.82
2023-02-20T15:13:32.549Z,-144.82
2023-02-20T15:16:06.699Z,-144.82
2023-02-20T15:18:34.607Z,-144.82
2023-02-20T15:21:01.507Z,-144.82
2023-02-20T15:23:32.019Z,-144.82
2023-02-20T15:25:59.071Z,-144.82
2023-02-20T15:28:26.882Z,-144.82
2023-02-20T15:31:08.792Z,-144.82
2023-02-20T15:33:36.168Z,-144.82
2023-02-20T15:36:02.950Z,-144.82
2023-02-20T15:38:30.324Z,-144.82
2023-02-20T15:41:00.414Z,-144.82
2023-02-20T15:43:45.355Z,-144.82
2023-02-20T15:46:14.739Z,-144.82
2023-02-20T15:48:41.593Z,-144.82
2023-02-20T15:51:09.357Z,-144.82
2023-02-20T15:53:35.838Z,-144.82
2023-02-20T15:56:02.400Z,-144.82
2023-02-20T15:58:35.379Z,-144.82
2023-02-20T16:01:02.321Z,-144.82
2023-02-20T16:03:31.843Z,-144.82
2023-02-20T16:06:00.628Z,-144.82
2023-02-20T16:08:27.305Z,-144.82
2023-02-20T16:10:53.913Z,-144.82
2023-02-20T16:13:35.960Z,-144.82
2023-02-20T16:16:23.286Z,-144.82
2023-02-20T16:18:52.771Z,-144.82
2023-02-20T16:21:20.031Z,-144.82
2023-02-20T16:23:48.335Z,-144.82
2023-02-20T16:26:15.065Z,-144.82
2023-02-20T16:28:41.718Z,-144.82
2023-02-20T16:31:09.912Z,-144.82
2023-02-20T16:33:36.396Z,-144.82
2023-02-20T16:36:04.202Z,-144.82
2023-02-20T16:38:30.707Z,-144.82
2023-02-20T16:40:59.085Z,-144.82
2023-02-20T16:43:26.124Z,-144.82
2023-02-20T16:45:52.718Z,-144.82
2023-02-20T16:48:19.706Z,-144.82
2023-02-20T16:50:50.639Z,-144.82
2023-02-20T16:53:17.135Z,-144.82
2023-02-20T16:55:44.426Z,-144.82
2023-02-20T16:58:10.880Z,-144.82
2023-02-20T17:00:50.966Z,-144.82
2023-02-20T17:03:22.754Z,-144.82
2023-02-20T17:05:49.217Z,-144.82
2023-02-20T17:08:15.685Z,-144.82
2023-02-20T17:10:42.321Z,-144.82
2023-02-20T17:13:08.760Z,-144.82
2023-02-20T17:15:37.321Z,-144.82
2023-02-20T17:18:04.330Z,-144.82
2023-02-20T17:20:30.854Z,-144.82
2023-02-20T17:23:04.629Z,-144.82
2023-02-20T17:25:31.861Z,-144.82
2023-02-20T17:27:58.330Z,-144.82
2023-02-20T17:30:25.158Z,-144.82
2023-02-20T17:32:52.438Z,-144.82
2023-02-20T17:35:18.901Z,-144.82
2023-02-20T17:37:45.575Z,-144.82
2023-02-20T17:40:12.500Z,-144.82
2023-02-20T17:42:38.990Z,-144.82
2023-02-20T17:45:05.683Z,-144.82
2023-02-20T17:47:33.405Z,-144.82
2023-02-20T17:50:00.010Z,-144.82
2023-02-20T17:52:26.509Z,-144.82
2023-02-20T17:54:55.470Z,-144.82
2023-02-20T17:57:22.220Z,-144.82
2023-02-20T17:59:51.566Z,-144.82
2023-02-20T18:02:18.304Z,-144.82
2023-02-20T18:04:44.818Z,-144.82
2023-02-20T18:07:11.863Z,-144.82
2023-02-20T18:09:38.680Z,-144.82
2023-02-20T18:12:05.340Z,-144.82
2023-02-20T18:14:31.976Z,-144.82
2023-02-20T18:16:58.572Z,-144.82
2023-02-20T18:19:25.231Z,-144.82
2023-02-20T18:21:52.888Z,-144.82
2023-02-20T18:24:22.929Z,-144.82
2023-02-20T18:26:50.614Z,-144.82
2023-02-20T18:29:17.163Z,-144.82
2023-02-20T18:31:43.790Z,-144.82
2023-02-20T18:34:11.408Z,-144.82
2023-02-20T18:36:38.009Z,-144.82
2023-02-20T18:39:05.299Z,-144.82
2023-02-20T18:41:31.803Z,-144.82
2023-02-20T18:43:58.296Z,-144.82
2023-02-20T18:46:28.909Z,-144.82
2023-02-20T18:48:55.475Z,-144.82
2023-02-20T18:51:38.368Z,-144.82
2023-02-20T18:54:05.324Z,-144.82
2023-02-20T18:56:31.860Z,-144.82
2023-02-20T18:58:59.365Z,-144.82
2023-02-20T19:01:25.966Z,-144.82
2023-02-20T19:03:52.979Z,-144.82
2023-02-20T19:06:25.553Z,-144.82
2023-02-20T19:08:52.016Z,-144.82
2023-02-20T19:11:18.536Z,-144.82
2023-02-20T19:13:45.111Z,-144.82
2023-02-20T19:16:11.779Z,-144.82
2023-02-20T19:18:49.914Z,-144.82
2023-02-20T19:21:17.378Z,-144.82
2023-02-20T19:23:44.747Z,-144.82
2023-02-20T19:26:11.386Z,-144.82
2023-02-20T19:28:39.522Z,-144.82
2023-02-20T19:31:06.117Z,-144.82
2023-02-20T19:33:32.579Z,-144.82
2023-02-20T19:35:59.084Z,-144.82
2023-02-20T19:38:25.535Z,-144.82
2023-02-20T19:40:52.031Z,-144.82
2023-02-20T19:43:18.500Z,-144.82
2023-02-20T19:45:44.968Z,-144.82
2023-02-20T19:48:11.790Z,-144.82
2023-02-20T19:50:38.507Z,-144.82
2023-02-20T19:53:04.980Z,-144.82
2023-02-20T19:55:31.934Z,-144.82
2023-02-20T19:57:59.861Z,-144.82
2023-02-20T20:00:28.670Z,-144.82
2023-02-20T20:02:58.167Z,-144.82
2023-02-20T20:05:24.848Z,-144.82
2023-02-20T20:07:51.634Z,-144.82
2023-02-20T20:10:19.181Z,-144.82
2023-02-20T20:12:48.868Z,-144.82
2023-02-20T20:15:18.435Z,-144.82
2023-02-20T20:17:45.836Z,-144.82
2023-02-20T20:20:12.323Z,-144.82
2023-02-20T20:22:39.857Z,-144.82
2023-02-20T20:25:06.600Z,-144.82
2023-02-20T20:27:33.304Z,-144.82
2023-02-20T20:29:59.783Z,-144.82
2023-02-20T20:32:26.245Z,-144.82
2023-02-20T20:34:55.158Z,-144.82
2023-02-20T20:37:25.388Z,-144.82
2023-02-20T20:39:52.168Z,-144.82
2023-02-20T20:42:23.314Z,-144.82
2023-02-20T20:44:50.985Z,-144.82
2023-02-20T20:47:17.754Z,-144.82
2023-02-20T20:49:44.231Z,-144.82
2023-02-20T20:52:10.715Z,-144.82
2023-02-20T20:54:37.139Z,-144.82
2023-02-20T20:57:03.679Z,-144.82
2023-02-20T20:59:30.153Z,-144.82
2023-02-20T21:01:56.572Z,-144.82
2023-02-20T21:04:23.271Z,-144.82
2023-02-20T21:06:49.888Z,-144.82
2023-02-20T21:09:16.584Z,-144.82
2023-02-20T21:11:45.079Z,-144.82
2023-02-20T21:14:11.585Z,-144.82
2023-02-20T21:16:38.032Z,-144.82
2023-02-20T21:19:04.508Z,-144.82
2023-02-20T21:21:31.549Z,-144.82
2023-02-20T21:23:58.023Z,-144.82
2023-02-20T21:26:24.482Z,-144.82
2023-02-20T21:28:50.951Z,-144.82
2023-02-20T21:31:17.816Z,-144.82
2023-02-20T21:33:45.060Z,-144.82
2023-02-20T21:36:11.706Z,-144.82
2023-02-20T21:38:38.133Z,-144.82
2023-02-20T21:41:04.682Z,-144.82
2023-02-20T21:43:50.043Z,-144.82
2023-02-20T21:46:18.051Z,-144.82
2023-02-20T21:48:44.534Z,-144.82
2023-02-20T21:51:11.008Z,-144.82
2023-02-20T21:53:37.465Z,-144.82
2023-02-20T21:56:04.291Z,-144.82
2023-02-20T21:58:49.523Z,-144.82
2023-02-20T22:01:16.146Z,-144.82
2023-02-20T22:03:42.566Z,-144.82
2023-02-20T22:06:09.001Z,-144.82
2023-02-20T22:08:54.119Z,-144.82
2023-02-20T22:11:39.475Z,-144.82
2023-02-20T22:14:24.568Z,-144.82
2023-02-20T22:17:10.100Z,-144.82
2023-02-20T22:19:55.608Z,-144.82
2023-02-20T22:22:40.742Z,-144.82
2023-02-20T22:25:26.127Z,-144.82
2023-02-20T22:28:11.180Z,-144.82
2023-02-20T22:30:56.665Z,-144.82
2023-02-20T22:33:41.650Z,-144.82
2023-02-20T22:36:26.733Z,-144.82
2023-02-20T22:39:11.963Z,-144.82
2023-02-20T22:41:57.152Z,-144.82
2023-02-20T22:44:42.287Z,-144.82
2023-02-20T22:47:27.051Z,-144.82
2023-02-20T22:50:12.416Z,-144.82
2023-02-20T22:52:57.572Z,-144.82
2023-02-20T22:55:42.690Z,-144.82
2023-02-20T22:58:27.902Z,-144.82
2023-02-20T23:01:13.296Z,-144.82
2023-02-20T23:03:58.690Z,-144.82
2023-02-20T23:06:43.761Z,-144.82
2023-02-20T23:09:28.881Z,-144.82
2023-02-20T23:12:13.938Z,-144.82
2023-02-20T23:15:00.404Z,-144.82
2023-02-20T23:17:45.670Z,-144.82
2023-02-20T23:20:31.868Z,-144.82
2023-02-20T23:23:17.314Z,-144.82
2023-02-20T23:26:02.357Z,-144.82
2023-02-20T23:28:47.389Z,-144.82
2023-02-20T23:31:32.850Z,-144.82
2023-02-20T23:34:17.886Z,-144.82
2023-02-20T23:37:06.534Z,-144.82
2023-02-20T23:39:51.529Z,-144.82
2023-02-20T23:42:37.196Z,-144.82
2023-02-20T23:45:22.562Z,-144.82
2023-02-20T23:48:07.890Z,-144.82
2023-02-20T23:51:11.572Z,-144.82
2023-02-20T23:53:56.826Z,-144.82
2023-02-20T23:56:41.952Z,-144.82
2023-02-20T23:59:27.073Z,-144.82
